Pagrindinis puslapis
METAR-TAF:

METAR-TAF

Oro uostai :

San Andresas, Kolumbija

platuma: 12-35N, ilguma: 081-43W, Aukštis: 1 m

Dabartinis oras

Ataskaita buvo paskelbta 8 minutes, ne 13:00 UTC
Vėjas 12 kt iš Šiaurės Rytų
Temperatūra 27°C
Drėgmė 84%
Slėgis 1013 hPa
Matomumas 10 km arba daugiau
Išsisklaidę debesys ne aukštis 1700 ft

METAR: SKSP 141300Z 04012KT 9999 SCT017 27/24 Q1013 REDZ

Laikas: 08:08 (13:08 UTC)

Prognozė

Ataskaita buvo paskelbta 2 valandos ir 38 minutes, ne 10:30 UTC
Prognozė galioja nuo 14 metu 12 UTC su 15 metu 12 UTC
Vėjas 14 kt iš Šiaurės Rytų
Matomumas 10 km arba daugiau
Mažai debesys ne aukštis 1800 ft

TAF: SKSP 141030Z 1412/1512 05014KT 9999 FEW018 TX32/1419Z TN27/1510Z

Orai ataskaitas ir orų prognozės (METAR, TAF).

turimą stotys yra geltonos ir raudonos taškus žemėlapyje.

Perkelti pele per norėdami pamatyti stoties vardą.

Tada spustelėkite, norėdami matyti oro stebėjimo ir prognozės.

Norėdami pakeisti žemėlapį: spustelėkite ant žalios mygtukų su juodo kryžiaus žemyn,; žalią mygtuką su brūkšneliu, jei norite nutolinti; arba žalių rodyklių gretimoms žemėlapius.


METAR-TAF: